La Grande Rivière Airport
CYGL : now visible

Airfield :











YOU CAN JOIN US ON...

 
LOGIN :

Register | Disclaimer

   EN    FR    IT 

 









Legend :    VFR   Marginal VFR   IFR   Intensive IFR   Very Intensive IFR
Visi :
Ceiling :
>= 8 km
>= 3000ft
5 to 8 km
1000 to 3000 ft
1500m to 5 km
500 to 1000 ft
800 to 1500m
200 to 500 ft
< 800m
< 200 ft
Symbols :   Thunderstorms  Fog  Heavy snow  Heavy precipitations  Wind > 20 kt






- Airport Elevation : 639 ft
- IATA code : YGL


CYGL - La Grande Rivière

CURRENT METAR :
  • 281700Z 12005KT 040V160 15SM FEW005 SCT012 BKN070 BKN250 22/17 A2972 RMK SF1CF3AC2CI1 SLP071 DENSITY ALT 1900FT

EXPIRED METARs :
  • 281600Z 04006KT 010V080 15SM FEW002 FEW005 BKN074 BKN250 17/14 A2973 RMK SF1SF1AC3CI2 SLP077 DENSITY ALT 1300FT
  • 281531Z 07003KT 12SM FEW002 SCT005 BKN070 BKN250 16/14 A2974 RMK SF2SF2AC2CI1 FOGGY SLP079 DENSITY ALT 1100FT
  • 281519Z 07006KT 6SM BR SCT002 OVC005 15/14 A2974 RMK SF2SF6 CIG RAG SLP080 DENSITY ALT 1000FT
  • 281504Z 08006KT 2SM BR BKN002 OVC004 15/14 A2974 RMK SF5SF3 CIG RAG SLP080 DENSITY ALT 1000FT

TAF TAF CYGL
Valid from the 28 at 18:00 until the 29 at 18:00 UTC


281730Z 2818/2918 VRB03KT P6SM FEW005 SCT012 BKN070
TEMPO 2818/2820 SCT005 BKN012
BECMG 2818/2820 26012G22KT
FM290200 29009KT P6SM -RA BKN020 OVC060
FM290800 32010KT 3SM -RA BR OVC008
BECMG 2911/2913 P6SM NSW SCT008 BKN020 RMK NXT FCST BY 290000Z
CZUL FIR / North America



MET'MAP, your aeronautical weather chart ! - Copyright ORBIFLY December 2007 - Disclaimer

ORBIFLY MET'MAP TEAM :

Programming & Development : Alexandra Zaïnal
Concept & original design : Baudouin d'Aumeries
Assistance for programming : Marc-Olivier Méhu
Technical & hardware support : Manuel Goepfert

Contact : metmap@orbifly.com




SOURCES & CREDITS :

   NOAA       Earth
Advisory